Time;durP1;ratioP1;P1;durP2;ratioP2;P2;SDS_P1;SDS_P2;PMS_P1;PMS_P2;Temp;Humidity;BMP_temperature;BMP_pressure;BME280_temperature;BME280_humidity;BME280_pressure;Samples;Min_cycle;Max_cycle;Signal;HPM_P1;HPM_P2
2023/02/25 00:00:16;;;;;;;9.20;3.80;;;;;;;4.54;100.00;97609.69;4909985;29;20040;-77
2023/02/25 00:02:45;;;;;;;7.57;3.90;;;;;;;4.53;100.00;97607.19;4913028;28;20139;-78
2023/02/25 00:05:11;;;;;;;7.68;3.72;;;;;;;4.50;100.00;97619.13;4913983;28;20036;-79
2023/02/25 00:07:37;;;;;;;8.18;3.38;;;;;;;4.48;100.00;97625.69;4912339;28;20024;-77
2023/02/25 00:10:03;;;;;;;5.95;3.63;;;;;;;4.57;100.00;97627.22;4912931;29;20386;-77
2023/02/25 00:12:28;;;;;;;13.25;3.67;;;;;;;4.47;100.00;97599.94;4910518;28;20078;-78
2023/02/25 00:14:54;;;;;;;12.68;3.78;;;;;;;4.55;100.00;97631.94;4935894;28;20466;-78
2023/02/25 00:17:19;;;;;;;8.38;4.18;;;;;;;4.53;100.00;97607.19;4911558;29;20495;-77
2023/02/25 00:19:44;;;;;;;8.70;4.03;;;;;;;4.57;100.00;97614.66;4911725;29;20031;-79
2023/02/25 00:22:10;;;;;;;9.63;3.50;;;;;;;4.65;100.00;97628.94;4925400;28;20425;-77
2023/02/25 00:24:35;;;;;;;6.13;3.42;;;;;;;4.56;100.00;97604.97;4958506;28;20021;-78
2023/02/25 00:27:00;;;;;;;9.20;3.55;;;;;;;4.55;100.00;97613.19;4934424;28;20024;-78
2023/02/25 00:29:26;;;;;;;6.28;3.38;;;;;;;4.61;100.00;97610.59;4932807;28;20089;-77
2023/02/25 00:31:51;;;;;;;6.70;3.80;;;;;;;4.61;100.00;97613.25;4935143;28;20032;-78
2023/02/25 00:34:16;;;;;;;8.82;3.80;;;;;;;4.61;100.00;97621.28;4930880;28;20055;-79
2023/02/25 00:36:42;;;;;;;5.78;2.97;;;;;;;4.39;100.00;97593.72;4930666;28;20024;-78
2023/02/25 00:39:07;;;;;;;6.85;3.50;;;;;;;4.54;100.00;97628.44;4961679;28;20068;-77
2023/02/25 00:41:33;;;;;;;10.93;4.45;;;;;;;4.45;100.00;97621.56;4940956;28;20054;-77
2023/02/25 00:44:00;;;;;;;7.95;3.63;;;;;;;4.46;100.00;97633.94;4912836;28;20155;-77
2023/02/25 00:46:28;;;;;;;6.88;3.45;;;;;;;4.34;100.00;97606.03;4915182;28;20031;-77
2023/02/25 00:48:53;;;;;;;7.68;3.85;;;;;;;4.40;100.00;97632.00;4910959;28;20048;-77
2023/02/25 00:51:22;;;;;;;10.60;3.28;;;;;;;4.38;100.00;97631.41;4943506;23;20032;-79
2023/02/25 00:53:47;;;;;;;12.48;3.55;;;;;;;4.29;100.00;97608.44;4941341;28;20055;-77
2023/02/25 00:56:15;;;;;;;8.35;3.53;;;;;;;4.33;100.00;97625.81;4950910;28;20496;-77
2023/02/25 00:58:44;;;;;;;8.20;3.40;;;;;;;4.26;100.00;97630.25;4954769;28;20023;-77
2023/02/25 01:01:20;;;;;;;;;;;;;;;4.36;100.00;97636.13;4954168;28;20546;-79
2023/02/25 01:03:46;;;;;;;5.78;3.15;;;;;;;4.31;100.00;97628.66;4940238;28;19918;-79
2023/02/25 01:06:12;;;;;;;6.30;3.60;;;;;;;4.01;100.00;97576.28;4936362;29;20070;-79
2023/02/25 01:08:37;;;;;;;7.70;3.58;;;;;;;4.26;100.00;97611.53;4933995;29;20489;-77
2023/02/25 01:11:16;;;;;;;10.07;3.70;;;;;;;4.24;100.00;97621.59;4941367;29;20053;-78
2023/02/25 01:13:42;;;;;;;5.60;3.20;;;;;;;4.18;100.00;97601.78;4950537;28;20058;-79
2023/02/25 01:16:13;;;;;;;7.32;3.25;;;;;;;4.24;100.00;97621.59;4954136;29;20070;-79
2023/02/25 01:18:39;;;;;;;5.57;3.38;;;;;;;4.18;100.00;97615.16;4951596;29;20034;-79
2023/02/25 01:21:05;;;;;;;5.40;3.58;;;;;;;4.07;100.00;97603.13;4956288;29;20059;-80
2023/02/25 01:23:30;;;;;;;8.52;3.38;;;;;;;4.32;100.00;97619.63;4948797;28;20054;-78
2023/02/25 01:25:55;;;;;;;5.05;3.13;;;;;;;4.05;100.00;97591.75;4949645;29;20028;-80
2023/02/25 01:28:20;;;;;;;6.03;3.40;;;;;;;4.32;100.00;97610.75;5040046;28;20078;-79
2023/02/25 01:30:46;;;;;;;11.98;3.92;;;;;;;4.27;100.00;97623.88;4950982;28;20090;-79
2023/02/25 01:33:11;;;;;;;7.28;3.50;;;;;;;4.05;100.00;97602.47;4945701;28;20126;-79
2023/02/25 01:35:36;;;;;;;6.15;3.20;;;;;;;4.09;100.00;97608.28;4945443;29;20114;-79
2023/02/25 01:38:02;;;;;;;6.07;3.28;;;;;;;3.95;100.00;97597.44;5031570;28;20032;-79
2023/02/25 01:40:27;;;;;;;8.95;3.28;;;;;;;4.04;100.00;97608.03;4943925;28;20053;-79
2023/02/25 01:42:52;;;;;;;7.97;2.65;;;;;;;4.14;100.00;97629.97;4941764;28;20019;-79
2023/02/25 01:45:21;;;;;;;7.88;2.53;;;;;;;4.26;100.00;97652.50;4936779;29;20031;-78
2023/02/25 01:47:53;;;;;;;6.30;2.30;;;;;;;4.17;100.00;97648.31;4954223;28;20078;-80
2023/02/25 01:50:22;;;;;;;6.55;2.88;;;;;;;4.16;100.00;97646.63;4958025;29;20287;-79
2023/02/25 01:52:48;;;;;;;5.47;2.47;;;;;;;4.30;100.00;97671.72;4954065;28;20059;-80
2023/02/25 01:55:13;;;;;;;4.72;2.40;;;;;;;4.15;100.00;97648.47;4951558;28;20059;-79
2023/02/25 01:57:39;;;;;;;7.03;2.60;;;;;;;4.17;100.00;97654.47;4951383;28;20037;-79
2023/02/25 02:00:11;;;;;;;4.88;2.05;;;;;;;4.28;100.00;97677.25;4954032;28;20027;-79
2023/02/25 02:02:37;;;;;;;4.15;2.20;;;;;;;4.23;100.00;97665.44;4948945;28;20107;-80
2023/02/25 02:05:04;;;;;;;5.80;2.50;;;;;;;4.02;100.00;97631.47;4950919;28;20416;-80
2023/02/25 02:07:30;;;;;;;5.93;2.28;;;;;;;4.14;100.00;97654.06;4957370;28;20034;-79
2023/02/25 02:09:55;;;;;;;4.82;2.50;;;;;;;3.99;100.00;97634.53;4956843;29;20110;-79
2023/02/25 02:12:23;;;;;;;6.57;2.38;;;;;;;4.20;100.00;97658.63;4955445;28;20024;-80
2023/02/25 02:14:49;;;;;;;10.10;2.50;;;;;;;3.83;100.00;97603.50;4955271;28;20035;-79
2023/02/25 02:17:41;;;;;;;5.20;2.67;;;;;;;4.08;100.00;97655.63;4941260;28;20276;-79
2023/02/25 02:20:24;;;;;;;3.65;2.08;;;;;;;3.96;100.00;97635.75;4938545;29;20027;-78
2023/02/25 02:23:11;;;;;;;5.22;2.13;;;;;;;4.02;100.00;97647.53;4944413;28;20031;-80
2023/02/25 02:25:55;;;;;;;5.30;2.38;;;;;;;4.11;100.00;97660.59;4946997;29;20030;-79
2023/02/25 02:28:48;;;;;;;5.95;2.63;;;;;;;3.95;100.00;97652.81;4946995;29;20027;-79
2023/02/25 02:31:39;;;;;;;10.05;2.70;;;;;;;4.00;100.00;97658.41;4951777;28;20052;-78
2023/02/25 02:34:10;;;;;;;3.05;1.75;;;;;;;3.90;100.00;97669.44;4952732;29;20019;-78
2023/02/25 02:37:10;;;;;;;5.50;1.85;;;;;;;3.72;100.00;97661.81;4948091;28;20051;-78
2023/02/25 02:39:50;;;;;;;4.20;1.60;;;;;;;3.51;100.00;97653.72;4952533;28;20035;-77
2023/02/25 02:42:38;;;;;;;4.53;2.00;;;;;;;3.53;100.00;97689.13;4962178;29;20031;-78
2023/02/25 02:45:36;;;;;;;8.55;1.85;;;;;;;3.44;100.00;97679.56;4963261;29;20031;-77
2023/02/25 02:48:11;;;;;;;4.93;1.92;;;;;;;3.45;100.00;97676.69;4960539;28;20104;-80
2023/02/25 02:50:42;;;;;;;5.88;1.65;;;;;;;3.45;100.00;97660.66;4965081;28;20032;-79
2023/02/25 02:53:13;;;;;;;7.32;1.98;;;;;;;3.56;100.00;97674.56;4946037;28;20492;-79
2023/02/25 02:55:43;;;;;;;5.60;1.80;;;;;;;3.67;100.00;97695.50;4942892;29;20055;-80
2023/02/25 02:58:15;;;;;;;4.13;1.80;;;;;;;3.54;100.00;97672.09;4951403;28;20032;-79
2023/02/25 03:00:46;;;;;;;7.90;1.85;;;;;;;3.39;100.00;97644.53;4945200;29;20031;-78
2023/02/25 03:03:35;;;;;;;5.70;1.73;;;;;;;3.71;100.00;97696.78;4949705;28;20027;-79
2023/02/25 03:06:03;;;;;;;6.85;1.65;;;;;;;3.66;100.00;97694.66;4946644;28;20066;-79
2023/02/25 03:08:32;;;;;;;6.72;1.73;;;;;;;3.54;100.00;97673.91;4947817;29;20047;-79
2023/02/25 03:10:57;;;;;;;8.02;2.00;;;;;;;3.61;100.00;97686.34;4946470;29;20389;-78
2023/02/25 03:13:23;;;;;;;8.50;1.80;;;;;;;3.72;100.00;97701.09;4950875;28;20031;-78
2023/02/25 03:15:50;;;;;;;4.82;2.00;;;;;;;3.58;100.00;97689.41;4949499;29;20030;-78
2023/02/25 03:18:24;;;;;;;8.48;1.98;;;;;;;3.59;100.00;97709.81;4955591;29;20041;-80
2023/02/25 03:20:53;;;;;;;8.50;2.70;;;;;;;3.46;100.00;97683.72;5032416;28;20053;-78
2023/02/25 03:23:24;;;;;;;9.15;1.90;;;;;;;3.60;100.00;97706.09;4942478;28;20032;-78
2023/02/25 03:26:19;;;;;;;10.50;2.63;;;;;;;3.59;100.00;97693.75;4940697;28;20034;-79
2023/02/25 03:28:45;;;;;;;4.10;2.05;;;;;;;3.64;100.00;97711.91;4947152;28;20042;-79
2023/02/25 03:31:37;;;;;;;6.97;1.90;;;;;;;3.58;100.00;97708.13;4949471;29;20023;-80
2023/02/25 03:34:12;;;;;;;10.00;2.35;;;;;;;3.57;100.00;97703.81;4945727;28;20043;-80
2023/02/25 03:36:43;;;;;;;6.20;1.95;;;;;;;3.65;100.00;97709.06;4954592;29;20024;-79
2023/02/25 03:39:13;;;;;;;5.72;1.83;;;;;;;3.52;100.00;97695.50;4939516;29;20027;-79
2023/02/25 03:41:43;;;;;;;4.70;2.10;;;;;;;3.49;100.00;97703.91;4948038;28;20023;-80
2023/02/25 03:44:13;;;;;;;6.72;2.05;;;;;;;3.27;100.00;97673.56;4955073;28;20038;-79
2023/02/25 03:46:43;;;;;;;6.03;2.40;;;;;;;3.47;100.00;97720.13;4944542;29;20035;-78
2023/02/25 03:49:15;;;;;;;7.47;2.28;;;;;;;3.24;100.00;97717.53;4951896;29;20425;-78
2023/02/25 03:51:44;;;;;;;5.90;2.22;;;;;;;3.07;100.00;97713.41;4943594;28;20023;-80
2023/02/25 03:54:09;;;;;;;13.88;2.45;;;;;;;2.95;100.00;97730.88;4940724;29;20019;-78
2023/02/25 03:56:47;;;;;;;8.50;2.42;;;;;;;2.80;100.00;97723.66;4955983;28;20524;-79
2023/02/25 03:59:13;;;;;;;10.30;2.80;;;;;;;2.69;100.00;97732.09;4947944;28;20023;-79
2023/02/25 04:01:41;;;;;;;10.80;2.58;;;;;;;2.29;100.00;97691.38;4941738;29;20093;-79
2023/02/25 04:04:07;;;;;;;9.65;2.10;;;;;;;2.32;100.00;97717.69;4939876;28;20034;-79
2023/02/25 04:06:32;;;;;;;7.50;2.67;;;;;;;2.43;100.00;97753.81;4947449;28;20113;-78
2023/02/25 04:08:58;;;;;;;5.88;2.35;;;;;;;2.29;100.00;97733.25;4950506;29;20027;-78
2023/02/25 04:11:23;;;;;;;9.43;2.58;;;;;;;2.31;100.00;97758.75;4950751;29;20035;-79
2023/02/25 04:13:48;;;;;;;8.18;2.45;;;;;;;2.22;100.00;97749.09;4950065;28;20549;-79
2023/02/25 04:16:14;;;;;;;6.75;2.45;;;;;;;2.23;100.00;97748.13;4937794;28;20038;-79
2023/02/25 04:18:39;;;;;;;9.10;2.78;;;;;;;2.40;100.00;97762.19;4945535;28;20115;-78
2023/02/25 04:21:06;;;;;;;4.13;2.10;;;;;;;2.44;100.00;97751.97;4955365;28;20546;-77
2023/02/25 04:23:31;;;;;;;6.78;2.25;;;;;;;2.48;100.00;97745.28;4938307;29;20031;-79
2023/02/25 04:25:57;;;;;;;9.50;2.55;;;;;;;2.55;100.00;97756.91;4941654;29;20027;-78
2023/02/25 04:28:22;;;;;;;5.65;2.47;;;;;;;2.69;100.00;97755.31;4946960;28;20500;-79
2023/02/25 04:30:47;;;;;;;7.00;2.22;;;;;;;2.67;100.00;97747.44;4940400;28;20035;-78
2023/02/25 04:33:13;;;;;;;6.65;2.05;;;;;;;2.73;100.00;97736.06;4934423;28;20035;-78
2023/02/25 04:35:38;;;;;;;5.10;1.83;;;;;;;2.80;100.00;97757.53;4940897;29;20047;-78
2023/02/25 04:38:03;;;;;;;8.77;2.00;;;;;;;2.82;100.00;97734.97;4944259;28;20027;-78
2023/02/25 04:40:29;;;;;;;6.55;1.80;;;;;;;2.84;100.00;97740.97;4948681;28;20480;-78
2023/02/25 04:42:54;;;;;;;4.72;1.50;;;;;;;2.96;100.00;97761.91;4944377;29;20070;-79
2023/02/25 04:45:24;;;;;;;5.82;1.67;;;;;;;3.05;100.00;97769.69;4952560;28;20023;-79
2023/02/25 04:47:53;;;;;;;4.82;1.55;;;;;;;3.10;100.00;97777.16;4948091;28;20477;-78
2023/02/25 04:50:19;;;;;;;3.65;1.52;;;;;;;2.81;100.00;97733.34;4944611;28;20081;-78
2023/02/25 04:52:45;;;;;;;2.67;1.23;;;;;;;3.05;100.00;97760.84;4947741;28;20032;-78
2023/02/25 04:55:10;;;;;;;6.75;1.70;;;;;;;3.02;100.00;97755.84;4952775;29;20389;-78
2023/02/25 04:57:41;;;;;;;6.57;1.60;;;;;;;3.13;100.00;97779.47;4939345;29;20030;-78
2023/02/25 05:00:15;;;;;;;3.28;1.13;;;;;;;3.03;100.00;97766.34;4953320;29;20023;-80
2023/02/25 05:02:40;;;;;;;4.15;1.58;;;;;;;3.05;100.00;97768.84;4949738;28;20066;-79
2023/02/25 05:05:06;;;;;;;3.58;1.00;;;;;;;3.05;100.00;97761.66;4947074;29;20051;-78
2023/02/25 05:07:31;;;;;;;7.22;1.25;;;;;;;2.97;100.00;97748.38;4955823;29;20031;-79
2023/02/25 05:09:57;;;;;;;4.60;1.10;;;;;;;3.02;100.00;97746.00;4956654;28;20034;-79
2023/02/25 05:12:22;;;;;;;3.47;1.05;;;;;;;3.09;100.00;97762.13;4950004;28;20118;-79
2023/02/25 05:14:47;;;;;;;2.45;1.27;;;;;;;3.02;100.00;97737.97;4953033;28;20370;-80
2023/02/25 05:17:14;;;;;;;9.00;1.02;;;;;;;3.14;100.00;97759.72;4944480;28;20070;-79
2023/02/25 05:19:40;;;;;;;6.10;0.95;;;;;;;3.19;100.00;97767.22;4951384;29;20032;-80
2023/02/25 05:22:05;;;;;;;2.80;0.80;;;;;;;3.27;100.00;97769.81;4962027;28;20051;-80
2023/02/25 05:24:31;;;;;;;2.85;0.70;;;;;;;3.14;100.00;97751.72;4995053;28;20035;-79
2023/02/25 05:27:08;;;;;;;4.70;0.90;;;;;;;3.26;100.00;97771.66;4951425;28;20034;-82
2023/02/25 05:29:39;;;;;;;2.13;0.80;;;;;;;3.29;100.00;97765.09;4950547;29;20489;-82
2023/02/25 05:32:05;;;;;;;6.35;1.00;;;;;;;3.11;100.00;97744.06;4954514;28;20031;-81
2023/02/25 05:34:30;;;;;;;10.18;0.82;;;;;;;3.22;100.00;97765.03;4959965;28;20054;-81
2023/02/25 05:36:56;;;;;;;2.30;0.98;;;;;;;3.26;100.00;97768.16;4939302;28;20023;-82
2023/02/25 05:39:21;;;;;;;1.88;0.90;;;;;;;3.15;100.00;97752.56;4957359;28;20038;-80
2023/02/25 05:41:47;;;;;;;3.28;0.95;;;;;;;3.25;100.00;97761.97;4969142;28;20039;-85
2023/02/25 05:44:37;;;;;;;5.90;1.05;;;;;;;3.16;100.00;97746.19;4962330;28;20040;-88
2023/02/25 05:47:21;;;;;;;4.45;0.88;;;;;;;3.07;100.00;97745.47;4998334;28;20150;-89
2023/02/25 05:49:46;;;;;;;4.60;0.98;;;;;;;3.25;100.00;97766.50;4949353;28;20032;-73
2023/02/25 05:52:12;;;;;;;3.00;0.68;;;;;;;3.20;100.00;97745.66;4945653;29;20081;-74
2023/02/25 05:58:00;;;;;;;2.42;0.57;;;;;;;3.21;100.00;97755.31;4960598;28;20408;-79
2023/02/25 06:00:25;;;;;;;3.53;0.80;;;;;;;3.15;100.00;97760.59;4958827;28;20039;-79
2023/02/25 06:02:50;;;;;;;2.97;0.80;;;;;;;3.18;100.00;97761.03;4956817;29;20031;-78
2023/02/25 06:05:16;;;;;;;3.35;0.90;;;;;;;3.06;100.00;97757.97;4955207;29;20038;-81
2023/02/25 06:07:42;;;;;;;2.65;0.75;;;;;;;3.11;100.00;97754.75;4959046;28;20035;-78
2023/02/25 06:10:08;;;;;;;10.25;0.93;;;;;;;3.26;100.00;97774.31;4947163;28;20444;-77
2023/02/25 06:12:35;;;;;;;5.07;1.05;;;;;;;3.07;100.00;97748.13;4949940;28;20031;-77
2023/02/25 06:15:00;;;;;;;5.90;1.05;;;;;;;3.19;100.00;97769.88;4941708;28;20054;-78
2023/02/25 06:17:26;;;;;;;4.60;0.80;;;;;;;3.13;100.00;97755.41;4937934;29;20036;-79
2023/02/25 06:19:57;;;;;;;5.43;0.82;;;;;;;3.26;100.00;97779.66;4951460;28;20030;-81
2023/02/25 06:22:23;;;;;;;3.95;0.73;;;;;;;3.28;100.00;97791.00;4949171;28;20035;-79
2023/02/25 06:24:48;;;;;;;6.63;1.38;;;;;;;3.20;100.00;97777.72;4955919;28;20050;-74
2023/02/25 06:27:14;;;;;;;5.03;0.65;;;;;;;3.36;100.00;97792.78;4952956;28;20395;-74
2023/02/25 06:29:40;;;;;;;4.82;1.00;;;;;;;3.26;100.00;97787.69;4958202;28;20024;-75
2023/02/25 06:32:16;;;;;;;1.50;0.60;;;;;;;3.31;100.00;97791.66;4948651;28;20427;-76
2023/02/25 06:34:41;;;;;;;2.53;0.63;;;;;;;3.30;100.00;97782.78;4947968;28;20082;-76
2023/02/25 06:37:07;;;;;;;2.25;0.80;;;;;;;3.27;100.00;97783.16;4949437;28;20035;-75
2023/02/25 06:39:32;;;;;;;7.30;0.90;;;;;;;3.22;100.00;97762.34;4940857;28;20046;-75
2023/02/25 06:41:58;;;;;;;3.42;0.70;;;;;;;3.25;100.00;97764.66;4939843;28;20100;-77
2023/02/25 06:44:23;;;;;;;4.78;0.80;;;;;;;3.42;100.00;97780.53;4948567;28;20453;-75
2023/02/25 06:46:50;;;;;;;2.22;0.57;;;;;;;3.37;100.00;97793.59;4959652;28;20043;-75
2023/02/25 06:49:16;;;;;;;5.63;0.80;;;;;;;3.29;100.00;97786.50;4952274;28;20629;-76
2023/02/25 06:51:41;;;;;;;1.80;0.75;;;;;;;3.31;100.00;97786.31;4947344;28;20114;-77
2023/02/25 07:04:27;;;;;;;2.75;0.80;;;;;;;3.43;100.00;97790.19;4559641;23;20115;-73
2023/02/25 07:06:53;;;;;;;6.45;1.13;;;;;;;3.58;100.00;97816.97;4972035;28;20028;-73
2023/02/25 07:09:18;;;;;;;1.88;0.70;;;;;;;3.51;100.00;97795.44;4970232;28;20020;-73
2023/02/25 07:11:43;;;;;;;5.30;0.80;;;;;;;3.51;100.00;97803.47;4955702;28;20032;-73
2023/02/25 07:14:09;;;;;;;3.92;1.17;;;;;;;3.57;100.00;97805.44;4928887;29;20028;-73
2023/02/25 07:16:34;;;;;;;8.90;1.50;;;;;;;3.64;100.00;97826.91;4940301;29;20431;-73
2023/02/25 07:19:03;;;;;;;3.15;0.82;;;;;;;3.63;100.00;97822.59;4952550;28;20055;-72
2023/02/25 07:21:29;;;;;;;3.15;0.65;;;;;;;3.78;100.00;97820.75;4953361;29;20019;-73
2023/02/25 07:23:56;;;;;;;3.22;0.80;;;;;;;3.83;100.00;97830.91;4950588;28;20038;-73
2023/02/25 07:26:27;;;;;;;1.67;0.70;;;;;;;3.79;100.00;97813.56;4959787;28;20038;-73
2023/02/25 07:28:54;;;;;;;6.60;1.10;;;;;;;3.78;100.00;97820.75;4938406;29;20024;-73
2023/02/25 07:31:20;;;;;;;3.63;1.02;;;;;;;3.89;100.00;97822.97;4931111;29;20054;-73
2023/02/25 07:33:46;;;;;;;3.22;0.80;;;;;;;3.91;100.00;97815.59;4934327;29;20035;-74
2023/02/25 07:36:12;;;;;;;2.45;1.33;;;;;;;3.86;100.00;97801.09;4932397;28;20032;-73
2023/02/25 07:38:38;;;;;;;6.15;1.15;;;;;;;4.05;100.00;97805.88;4931139;29;20386;-72
2023/02/25 07:41:15;;;;;;;9.57;1.77;;;;;;;4.11;100.00;97821.22;4933319;28;20093;-75
2023/02/25 07:43:40;;;;;;;6.15;0.82;;;;;;;4.01;100.00;97814.47;4927795;29;20058;-75
2023/02/25 07:46:07;;;;;;;1.50;0.80;;;;;;;4.03;100.00;97813.25;4934556;29;20056;-75
2023/02/25 07:48:32;;;;;;;9.57;1.38;;;;;;;3.96;100.00;97804.34;4929271;28;20093;-77
2023/02/25 07:51:06;;;;;;;3.42;1.45;;;;;;;3.91;100.00;97804.88;4934114;28;20028;-77
2023/02/25 07:53:32;;;;;;;7.63;2.75;;;;;;;4.03;100.00;97807.91;4933501;29;20036;-75
2023/02/25 07:55:58;;;;;;;6.55;1.77;;;;;;;4.06;100.00;97796.84;4934487;29;20393;-77
2023/02/25 07:58:23;;;;;;;3.90;1.35;;;;;;;4.12;100.00;97814.81;4936560;28;20021;-75
2023/02/25 08:00:49;;;;;;;5.20;1.23;;;;;;;4.08;100.00;97821.56;4932500;28;20035;-74
2023/02/25 08:03:14;;;;;;;5.03;1.52;;;;;;;4.15;100.00;97816.31;4933418;29;20043;-75
2023/02/25 08:05:39;;;;;;;3.42;0.85;;;;;;;4.23;100.00;97810.00;4934210;28;20077;-76
2023/02/25 08:08:05;;;;;;;5.50;1.10;;;;;;;4.27;100.00;97796.06;4931987;28;20035;-74
2023/02/25 08:10:30;;;;;;;4.95;0.90;;;;;;;4.34;100.00;97802.31;4931636;29;20039;-74
2023/02/25 08:12:55;;;;;;;3.78;1.10;;;;;;;4.21;100.00;97783.41;4938113;28;20028;-75
2023/02/25 08:15:21;;;;;;;4.70;1.10;;;;;;;4.45;100.00;97805.53;4924539;28;20118;-73
2023/02/25 08:17:50;;;;;;;5.97;1.50;;;;;;;4.56;100.00;97813.09;4931077;28;20034;-75
2023/02/25 08:20:16;;;;;;;3.75;1.13;;;;;;;4.81;100.00;97813.53;4921696;28;20024;-76
2023/02/25 08:22:41;;;;;;;7.07;1.30;;;;;;;4.73;100.00;97821.69;4930507;28;20036;-75
2023/02/25 08:25:06;;;;;;;3.70;1.35;;;;;;;4.99;100.00;97827.31;4932187;29;20027;-79
2023/02/25 08:27:34;;;;;;;2.78;0.95;;;;;;;4.89;100.00;97824.13;4930891;28;20036;-76
2023/02/25 08:29:59;;;;;;;4.32;1.02;;;;;;;4.79;100.00;97807.53;4931228;29;20040;-77
2023/02/25 08:32:26;;;;;;;6.55;1.08;;;;;;;5.01;100.00;97801.16;4930942;28;20032;-75
2023/02/25 08:34:52;;;;;;;3.10;0.80;;;;;;;5.26;100.00;97814.16;4930905;29;20027;-77
2023/02/25 08:37:18;;;;;;;4.63;0.80;;;;;;;5.32;100.00;97802.66;4932409;28;20020;-77
2023/02/25 08:39:43;;;;;;;2.45;0.50;;;;;;;5.16;100.00;97797.56;4955304;28;20038;-76
2023/02/25 08:42:10;;;;;;;2.95;0.65;;;;;;;5.24;100.00;97808.16;4944432;29;20031;-76
2023/02/25 08:44:36;;;;;;;31.23;1.67;;;;;;;5.32;100.00;97823.25;4951565;29;20111;-72
2023/02/25 08:47:02;;;;;;;2.92;0.77;;;;;;;5.41;100.00;97816.75;4951757;28;20044;-72
2023/02/25 08:49:27;;;;;;;4.72;1.00;;;;;;;5.54;100.00;97827.56;4946594;28;20024;-71
2023/02/25 08:51:52;;;;;;;5.03;0.70;;;;;;;5.69;100.00;97814.06;4935270;29;20062;-79
2023/02/25 08:54:18;;;;;;;6.03;0.95;;;;;;;5.60;100.00;97815.22;4949333;28;20023;-77
2023/02/25 08:56:43;;;;;;;4.55;1.70;;;;;;;5.71;100.00;97825.41;4978386;28;20011;-76
2023/02/25 08:59:12;;;;;;;2.88;0.70;;;;;;;5.77;100.00;97826.50;4951481;29;20042;-76
2023/02/25 09:01:44;;;;;;;2.70;0.68;;;;;;;5.15;100.00;97801.28;4949530;29;20024;-76
2023/02/25 09:04:21;;;;;;;3.65;0.85;;;;;;;5.37;100.00;97816.31;4912351;28;1082040;-77
2023/02/25 09:06:47;;;;;;;2.55;0.65;;;;;;;5.76;100.00;97828.34;4946801;28;20039;-76
2023/02/25 09:09:14;;;;;;;1.98;0.57;;;;;;;5.71;100.00;97820.03;4930179;28;20032;-76
2023/02/25 09:11:40;;;;;;;2.58;0.65;;;;;;;5.65;100.00;97836.94;4931092;28;20073;-77
2023/02/25 09:14:06;;;;;;;3.45;0.73;;;;;;;5.65;100.00;97807.41;4934806;28;20393;-77
2023/02/25 09:16:31;;;;;;;2.55;0.47;;;;;;;5.59;100.00;97786.75;4935285;29;20035;-75
2023/02/25 09:18:58;;;;;;;3.33;0.60;;;;;;;5.66;100.00;97814.47;4930884;28;20038;-77
2023/02/25 09:21:23;;;;;;;4.07;0.73;;;;;;;5.60;100.00;97823.28;4967674;28;20039;-76
2023/02/25 09:23:50;;;;;;;7.05;0.75;;;;;;;5.60;100.00;97815.22;4934954;29;20030;-76
2023/02/25 09:26:17;;;;;;;2.75;0.82;;;;;;;5.77;100.00;97823.81;4934800;29;20074;-75
2023/02/25 09:28:43;;;;;;;3.60;0.70;;;;;;;5.97;100.00;97823.94;4933972;29;20089;-75
2023/02/25 09:31:09;;;;;;;1.90;0.70;;;;;;;6.06;100.00;97812.84;4932364;29;20031;-75
2023/02/25 09:33:35;;;;;;;4.85;0.82;;;;;;;6.25;100.00;97829.28;4934576;28;20035;-77
2023/02/25 09:36:10;;;;;;;6.15;1.08;;;;;;;6.18;100.00;97810.41;4929831;29;20358;-77
2023/02/25 09:38:37;;;;;;;3.35;0.55;;;;;;;6.22;100.00;97813.56;4933509;28;20039;-72
2023/02/25 09:41:24;;;;;;;5.05;0.95;;;;;;;6.31;100.00;97817.72;4935030;28;20041;-72
2023/02/25 09:44:04;;;;;;;1.10;0.60;;;;;;;6.51;100.00;97818.63;4933546;28;20032;-74
2023/02/25 09:46:31;;;;;;;2.55;0.73;;;;;;;6.27;100.00;97819.16;4933757;28;20032;-74
2023/02/25 09:49:08;;;;;;;3.35;0.50;;;;;;;6.13;97.23;97823.63;4930071;28;20636;-74
2023/02/25 09:51:37;;;;;;;3.03;0.70;;;;;;;5.87;98.99;97813.56;4934224;29;20138;-73
2023/02/25 09:54:23;;;;;;;6.50;0.70;;;;;;;5.91;100.00;97821.00;4952038;28;20031;-74
2023/02/25 09:56:49;;;;;;;4.20;0.65;;;;;;;5.91;100.00;97823.69;4940924;28;20027;-74
2023/02/25 09:59:17;;;;;;;2.25;0.50;;;;;;;6.08;100.00;97831.47;4933440;28;20082;-74
2023/02/25 10:01:58;;;;;;;4.32;0.75;;;;;;;6.05;96.05;97832.69;4934641;28;20058;-74
2023/02/25 10:04:38;;;;;;;2.22;0.43;;;;;;;6.04;95.61;97822.13;4935058;28;20477;-74
2023/02/25 10:07:19;;;;;;;1.58;0.50;;;;;;;6.26;96.37;97833.59;4931751;28;20031;-74
2023/02/25 10:09:49;;;;;;;3.10;0.60;;;;;;;6.36;92.11;97813.38;4933711;29;20030;-74
2023/02/25 10:12:48;;;;;;;1.20;0.70;;;;;;;6.45;90.54;97824.00;4934660;28;20039;-74
2023/02/25 10:15:32;;;;;;;3.03;0.50;;;;;;;6.46;89.14;97820.25;4939134;28;20511;-74
2023/02/25 10:18:38;;;;;;;3.00;0.93;;;;;;;6.40;88.18;97813.00;4954130;28;20204;-74
2023/02/25 10:21:31;;;;;;;3.95;0.68;;;;;;;6.59;88.32;97829.19;4936989;29;20074;-74
2023/02/25 10:24:33;;;;;;;2.55;0.47;;;;;;;6.73;86.44;97816.63;4925806;29;20034;-74
2023/02/25 10:27:18;;;;;;;3.65;0.47;;;;;;;7.43;85.28;97824.34;4929802;28;20048;-74
2023/02/25 10:29:48;;;;;;;4.32;0.80;;;;;;;7.46;77.85;97813.16;4928929;29;20107;-74
2023/02/25 10:32:22;;;;;;;3.97;0.55;;;;;;;8.00;78.67;97817.44;4925889;28;20438;-74
2023/02/25 10:34:52;;;;;;;2.55;0.60;;;;;;;8.52;77.80;97794.06;4933517;29;20532;-74
2023/02/25 10:37:43;;;;;;;3.22;0.70;;;;;;;8.74;77.02;97812.63;4933945;28;20031;-74
2023/02/25 10:40:19;;;;;;;2.55;0.55;;;;;;;8.55;74.99;97803.59;4936176;28;20089;-74
2023/02/25 10:42:47;;;;;;;2.65;0.50;;;;;;;8.13;77.39;97809.31;4932424;29;20512;-74
2023/02/25 10:45:21;;;;;;;2.17;0.50;;;;;;;8.15;79.63;97798.34;4932653;28;20062;-74
2023/02/25 10:47:50;;;;;;;2.10;0.73;;;;;;;8.06;82.75;97796.91;4930935;28;20043;-74
2023/02/25 10:50:24;;;;;;;4.18;0.60;;;;;;;7.70;90.77;97795.53;4932361;29;20027;-74
2023/02/25 10:52:55;;;;;;;3.33;1.00;;;;;;;7.29;94.10;97810.09;4932923;29;20035;-74
2023/02/25 10:55:37;;;;;;;9.43;0.95;;;;;;;7.07;98.02;97804.06;4934408;28;20362;-74
2023/02/25 10:58:03;;;;;;;3.75;0.80;;;;;;;6.62;100.00;97811.00;4931920;29;20028;-74
2023/02/25 11:00:32;;;;;;;7.25;1.13;;;;;;;6.39;100.00;97800.59;4933373;29;20027;-74
2023/02/25 11:03:00;;;;;;;4.35;0.73;;;;;;;6.17;100.00;97808.78;4933690;29;20082;-74
2023/02/25 11:05:42;;;;;;;2.33;0.73;;;;;;;6.15;100.00;97813.50;4933782;28;20031;-74
2023/02/25 11:08:28;;;;;;;4.20;0.70;;;;;;;6.34;100.00;97796.66;4931908;29;20043;-74
2023/02/25 11:11:01;;;;;;;2.88;0.73;;;;;;;6.53;100.00;97805.00;4928070;29;20366;-74
2023/02/25 11:13:29;;;;;;;4.30;0.90;;;;;;;6.63;100.00;97809.97;4932468;29;20389;-73
2023/02/25 11:15:55;;;;;;;6.60;1.15;;;;;;;6.77;100.00;97804.44;4930855;29;20031;-74
2023/02/25 11:18:29;;;;;;;4.53;1.02;;;;;;;6.86;100.00;97805.06;4933290;29;20392;-75
2023/02/25 11:21:00;;;;;;;3.72;1.10;;;;;;;6.85;100.00;97791.84;4923970;28;20490;-71
2023/02/25 11:23:41;;;;;;;1.85;1.13;;;;;;;6.61;100.00;97796.75;4930936;28;20485;-71
2023/02/25 11:26:07;;;;;;;2.22;1.05;;;;;;;6.38;100.00;97789.03;4931623;28;20027;-71
2023/02/25 11:28:38;;;;;;;2.75;0.90;;;;;;;6.41;100.00;97785.09;4927410;28;20040;-71
2023/02/25 11:31:18;;;;;;;2.58;0.90;;;;;;;6.33;100.00;97784.25;4928811;28;20537;-71
2023/02/25 11:33:51;;;;;;;4.30;0.93;;;;;;;6.04;100.00;97797.97;4928100;28;20438;-71
2023/02/25 11:36:22;;;;;;;3.05;0.75;;;;;;;5.99;100.00;97800.44;4931993;28;20036;-71
2023/02/25 11:38:48;;;;;;;7.35;0.90;;;;;;;5.99;100.00;97797.75;4940288;28;20059;-71
2023/02/25 11:41:21;;;;;;;3.65;0.75;;;;;;;5.93;100.00;97793.97;4925453;28;20054;-71
2023/02/25 11:43:47;;;;;;;2.58;0.90;;;;;;;6.07;100.00;97806.44;4925443;28;20101;-71
2023/02/25 11:46:26;;;;;;;2.40;0.90;;;;;;;5.93;100.00;97805.56;4930433;28;20050;-71
2023/02/25 11:49:40;;;;;;;2.83;0.77;;;;;;;5.71;100.00;97810.16;4925273;29;20751;-71
2023/02/25 11:52:17;;;;;;;6.30;0.85;;;;;;;5.61;100.00;97809.69;4931401;28;20539;-71
2023/02/25 11:54:42;;;;;;;4.78;0.80;;;;;;;5.54;100.00;97805.28;4929744;29;20385;-71
2023/02/25 11:57:21;;;;;;;2.33;1.02;;;;;;;5.53;100.00;97814.34;4925870;29;20038;-71
2023/02/25 12:00:41;;;;;;;7.70;1.25;;;;;;;5.45;100.00;97816.16;4928209;28;20032;-71